sensor_id;sensor_type;location;lat;lon;timestamp;P1;durP1;ratioP1;P2;durP2;ratioP2
6505;SDS011;3286;49.858;8.768;2023-02-21T00:00:05;9.93;;;3.47;;
6505;SDS011;3286;49.858;8.768;2023-02-21T00:02:49;4.30;;;2.97;;
6505;SDS011;3286;49.858;8.768;2023-02-21T00:05:33;5.10;;;3.30;;
6505;SDS011;3286;49.858;8.768;2023-02-21T00:08:17;7.30;;;3.60;;
6505;SDS011;3286;49.858;8.768;2023-02-21T00:11:01;6.77;;;3.37;;
6505;SDS011;3286;49.858;8.768;2023-02-21T00:13:45;5.60;;;3.60;;
6505;SDS011;3286;49.858;8.768;2023-02-21T00:16:30;7.57;;;3.30;;
6505;SDS011;3286;49.858;8.768;2023-02-21T00:19:14;9.57;;;3.50;;
6505;SDS011;3286;49.858;8.768;2023-02-21T00:21:59;7.07;;;3.50;;
6505;SDS011;3286;49.858;8.768;2023-02-21T00:24:43;9.03;;;4.03;;
6505;SDS011;3286;49.858;8.768;2023-02-21T00:27:27;7.13;;;3.27;;
6505;SDS011;3286;49.858;8.768;2023-02-21T00:30:11;8.03;;;3.80;;
6505;SDS011;3286;49.858;8.768;2023-02-21T00:32:58;10.37;;;3.90;;
6505;SDS011;3286;49.858;8.768;2023-02-21T00:35:42;6.13;;;3.40;;
6505;SDS011;3286;49.858;8.768;2023-02-21T00:38:26;7.73;;;3.37;;
6505;SDS011;3286;49.858;8.768;2023-02-21T00:41:09;4.77;;;3.47;;
6505;SDS011;3286;49.858;8.768;2023-02-21T00:43:53;9.87;;;4.00;;
6505;SDS011;3286;49.858;8.768;2023-02-21T00:46:38;7.83;;;3.40;;
6505;SDS011;3286;49.858;8.768;2023-02-21T00:49:23;5.80;;;3.50;;
6505;SDS011;3286;49.858;8.768;2023-02-21T00:52:08;9.37;;;3.50;;
6505;SDS011;3286;49.858;8.768;2023-02-21T00:54:52;10.17;;;3.70;;
6505;SDS011;3286;49.858;8.768;2023-02-21T00:57:36;9.37;;;3.80;;
6505;SDS011;3286;49.858;8.768;2023-02-21T01:00:20;11.50;;;4.03;;
6505;SDS011;3286;49.858;8.768;2023-02-21T01:03:06;7.77;;;3.30;;
6505;SDS011;3286;49.858;8.768;2023-02-21T01:05:52;8.43;;;4.00;;
6505;SDS011;3286;49.858;8.768;2023-02-21T01:08:39;10.47;;;3.70;;
6505;SDS011;3286;49.858;8.768;2023-02-21T01:11:24;11.07;;;3.90;;
6505;SDS011;3286;49.858;8.768;2023-02-21T01:14:09;8.97;;;3.70;;
6505;SDS011;3286;49.858;8.768;2023-02-21T01:16:52;7.83;;;3.80;;
6505;SDS011;3286;49.858;8.768;2023-02-21T01:19:36;7.70;;;4.00;;
6505;SDS011;3286;49.858;8.768;2023-02-21T01:22:21;7.17;;;3.87;;
6505;SDS011;3286;49.858;8.768;2023-02-21T01:25:06;8.90;;;3.97;;
6505;SDS011;3286;49.858;8.768;2023-02-21T01:27:52;10.70;;;4.30;;
6505;SDS011;3286;49.858;8.768;2023-02-21T01:30:36;5.33;;;3.90;;
6505;SDS011;3286;49.858;8.768;2023-02-21T01:33:20;8.80;;;4.23;;
6505;SDS011;3286;49.858;8.768;2023-02-21T01:36:04;8.43;;;4.30;;
6505;SDS011;3286;49.858;8.768;2023-02-21T01:38:50;8.13;;;4.57;;
6505;SDS011;3286;49.858;8.768;2023-02-21T01:41:34;9.10;;;4.40;;
6505;SDS011;3286;49.858;8.768;2023-02-21T01:44:33;9.73;;;4.10;;
6505;SDS011;3286;49.858;8.768;2023-02-21T01:47:20;6.63;;;3.90;;
6505;SDS011;3286;49.858;8.768;2023-02-21T01:50:06;7.63;;;4.23;;
6505;SDS011;3286;49.858;8.768;2023-02-21T01:52:54;8.20;;;4.27;;
6505;SDS011;3286;49.858;8.768;2023-02-21T01:55:40;9.03;;;3.90;;
6505;SDS011;3286;49.858;8.768;2023-02-21T01:58:26;8.53;;;4.20;;
6505;SDS011;3286;49.858;8.768;2023-02-21T02:01:14;7.23;;;3.90;;
6505;SDS011;3286;49.858;8.768;2023-02-21T02:04:04;8.63;;;4.33;;
6505;SDS011;3286;49.858;8.768;2023-02-21T02:06:48;8.10;;;4.40;;
6505;SDS011;3286;49.858;8.768;2023-02-21T02:09:32;9.80;;;4.60;;
6505;SDS011;3286;49.858;8.768;2023-02-21T02:12:23;8.57;;;4.40;;
6505;SDS011;3286;49.858;8.768;2023-02-21T02:15:20;8.27;;;4.60;;
6505;SDS011;3286;49.858;8.768;2023-02-21T02:18:20;11.03;;;5.60;;
6505;SDS011;3286;49.858;8.768;2023-02-21T02:24:05;11.43;;;5.03;;
6505;SDS011;3286;49.858;8.768;2023-02-21T02:27:08;7.03;;;4.40;;
6505;SDS011;3286;49.858;8.768;2023-02-21T02:36:34;9.20;;;4.30;;
6505;SDS011;3286;49.858;8.768;2023-02-21T02:39:08;8.37;;;4.80;;
6505;SDS011;3286;49.858;8.768;2023-02-21T02:41:44;7.50;;;3.93;;
6505;SDS011;3286;49.858;8.768;2023-02-21T02:44:16;11.90;;;4.33;;
6505;SDS011;3286;49.858;8.768;2023-02-21T02:46:47;6.93;;;4.07;;
6505;SDS011;3286;49.858;8.768;2023-02-21T02:49:17;10.27;;;3.57;;
6505;SDS011;3286;49.858;8.768;2023-02-21T02:51:47;7.17;;;3.73;;
6505;SDS011;3286;49.858;8.768;2023-02-21T02:54:13;5.40;;;3.57;;
6505;SDS011;3286;49.858;8.768;2023-02-21T02:56:41;9.57;;;4.30;;
6505;SDS011;3286;49.858;8.768;2023-02-21T02:59:09;7.53;;;4.10;;
6505;SDS011;3286;49.858;8.768;2023-02-21T03:01:42;7.53;;;4.03;;
6505;SDS011;3286;49.858;8.768;2023-02-21T03:04:27;6.77;;;4.07;;
6505;SDS011;3286;49.858;8.768;2023-02-21T03:07:05;11.03;;;4.47;;
6505;SDS011;3286;49.858;8.768;2023-02-21T03:09:42;6.80;;;4.07;;
6505;SDS011;3286;49.858;8.768;2023-02-21T03:12:19;6.60;;;4.07;;
6505;SDS011;3286;49.858;8.768;2023-02-21T03:14:57;9.80;;;5.00;;
6505;SDS011;3286;49.858;8.768;2023-02-21T03:17:31;9.80;;;4.43;;
6505;SDS011;3286;49.858;8.768;2023-02-21T03:20:03;10.83;;;4.67;;
6505;SDS011;3286;49.858;8.768;2023-02-21T03:22:32;6.73;;;4.43;;
6505;SDS011;3286;49.858;8.768;2023-02-21T03:25:00;12.30;;;5.30;;
6505;SDS011;3286;49.858;8.768;2023-02-21T03:27:28;8.57;;;4.47;;
6505;SDS011;3286;49.858;8.768;2023-02-21T03:29:56;5.40;;;3.87;;
6505;SDS011;3286;49.858;8.768;2023-02-21T03:32:26;7.53;;;4.57;;
6505;SDS011;3286;49.858;8.768;2023-02-21T03:34:56;7.47;;;4.47;;
6505;SDS011;3286;49.858;8.768;2023-02-21T03:37:28;10.30;;;4.80;;
6505;SDS011;3286;49.858;8.768;2023-02-21T03:39:57;6.33;;;4.13;;
6505;SDS011;3286;49.858;8.768;2023-02-21T03:42:24;6.17;;;4.47;;
6505;SDS011;3286;49.858;8.768;2023-02-21T03:44:51;9.27;;;4.80;;
6505;SDS011;3286;49.858;8.768;2023-02-21T03:47:18;11.17;;;4.70;;
6505;SDS011;3286;49.858;8.768;2023-02-21T03:49:44;15.60;;;4.97;;
6505;SDS011;3286;49.858;8.768;2023-02-21T03:52:11;9.30;;;4.63;;
6505;SDS011;3286;49.858;8.768;2023-02-21T03:54:38;11.57;;;4.63;;
6505;SDS011;3286;49.858;8.768;2023-02-21T03:57:06;9.27;;;5.27;;
6505;SDS011;3286;49.858;8.768;2023-02-21T03:59:33;9.03;;;4.40;;
6505;SDS011;3286;49.858;8.768;2023-02-21T04:02:00;8.53;;;4.60;;
6505;SDS011;3286;49.858;8.768;2023-02-21T04:04:26;8.40;;;4.33;;
6505;SDS011;3286;49.858;8.768;2023-02-21T04:06:53;7.50;;;4.63;;
6505;SDS011;3286;49.858;8.768;2023-02-21T04:09:19;8.67;;;4.33;;
6505;SDS011;3286;49.858;8.768;2023-02-21T04:11:47;15.83;;;5.20;;
6505;SDS011;3286;49.858;8.768;2023-02-21T04:14:15;6.17;;;4.33;;
6505;SDS011;3286;49.858;8.768;2023-02-21T04:16:42;10.17;;;4.93;;
6505;SDS011;3286;49.858;8.768;2023-02-21T04:19:08;9.53;;;4.77;;
6505;SDS011;3286;49.858;8.768;2023-02-21T04:21:35;10.83;;;5.00;;
6505;SDS011;3286;49.858;8.768;2023-02-21T04:24:02;11.33;;;5.30;;
6505;SDS011;3286;49.858;8.768;2023-02-21T04:26:29;9.33;;;5.33;;
6505;SDS011;3286;49.858;8.768;2023-02-21T04:28:56;13.00;;;5.03;;
6505;SDS011;3286;49.858;8.768;2023-02-21T04:31:24;11.13;;;5.63;;
6505;SDS011;3286;49.858;8.768;2023-02-21T04:33:50;10.20;;;5.17;;
6505;SDS011;3286;49.858;8.768;2023-02-21T04:36:17;10.87;;;5.37;;
6505;SDS011;3286;49.858;8.768;2023-02-21T04:38:44;13.17;;;5.43;;
6505;SDS011;3286;49.858;8.768;2023-02-21T04:41:10;10.07;;;5.13;;
6505;SDS011;3286;49.858;8.768;2023-02-21T04:43:37;10.33;;;5.33;;
6505;SDS011;3286;49.858;8.768;2023-02-21T04:46:06;7.63;;;5.20;;
6505;SDS011;3286;49.858;8.768;2023-02-21T04:48:34;6.77;;;4.97;;
6505;SDS011;3286;49.858;8.768;2023-02-21T04:51:01;12.83;;;5.70;;
6505;SDS011;3286;49.858;8.768;2023-02-21T04:53:28;7.97;;;5.40;;
6505;SDS011;3286;49.858;8.768;2023-02-21T04:55:54;10.17;;;5.70;;
6505;SDS011;3286;49.858;8.768;2023-02-21T04:58:21;8.40;;;5.63;;
6505;SDS011;3286;49.858;8.768;2023-02-21T05:00:47;9.83;;;5.77;;
6505;SDS011;3286;49.858;8.768;2023-02-21T05:03:14;9.07;;;5.50;;
6505;SDS011;3286;49.858;8.768;2023-02-21T05:05:43;11.37;;;5.70;;
6505;SDS011;3286;49.858;8.768;2023-02-21T05:08:10;8.67;;;5.30;;
6505;SDS011;3286;49.858;8.768;2023-02-21T05:10:37;10.67;;;5.97;;
6505;SDS011;3286;49.858;8.768;2023-02-21T05:13:03;8.03;;;5.23;;
6505;SDS011;3286;49.858;8.768;2023-02-21T05:15:30;12.23;;;6.50;;
6505;SDS011;3286;49.858;8.768;2023-02-21T05:17:56;8.83;;;5.77;;
6505;SDS011;3286;49.858;8.768;2023-02-21T05:20:23;16.43;;;6.10;;
6505;SDS011;3286;49.858;8.768;2023-02-21T05:22:51;10.03;;;5.53;;
6505;SDS011;3286;49.858;8.768;2023-02-21T05:25:18;10.57;;;5.50;;
6505;SDS011;3286;49.858;8.768;2023-02-21T05:27:47;10.17;;;5.83;;
6505;SDS011;3286;49.858;8.768;2023-02-21T05:30:15;9.80;;;5.57;;
6505;SDS011;3286;49.858;8.768;2023-02-21T05:32:44;9.03;;;5.43;;
6505;SDS011;3286;49.858;8.768;2023-02-21T05:35:12;11.90;;;6.53;;
6505;SDS011;3286;49.858;8.768;2023-02-21T05:37:39;8.00;;;5.50;;
6505;SDS011;3286;49.858;8.768;2023-02-21T05:40:08;12.37;;;5.83;;
6505;SDS011;3286;49.858;8.768;2023-02-21T05:42:36;12.57;;;7.60;;
6505;SDS011;3286;49.858;8.768;2023-02-21T05:45:02;9.57;;;6.33;;
6505;SDS011;3286;49.858;8.768;2023-02-21T05:47:31;10.70;;;5.93;;
6505;SDS011;3286;49.858;8.768;2023-02-21T05:49:59;11.80;;;6.10;;
6505;SDS011;3286;49.858;8.768;2023-02-21T05:52:26;9.77;;;6.53;;
6505;SDS011;3286;49.858;8.768;2023-02-21T05:54:52;13.97;;;6.70;;
6505;SDS011;3286;49.858;8.768;2023-02-21T05:57:20;12.90;;;6.23;;
6505;SDS011;3286;49.858;8.768;2023-02-21T05:59:47;16.93;;;6.33;;
6505;SDS011;3286;49.858;8.768;2023-02-21T06:02:14;13.07;;;6.63;;
6505;SDS011;3286;49.858;8.768;2023-02-21T06:04:41;9.57;;;6.73;;
6505;SDS011;3286;49.858;8.768;2023-02-21T06:07:07;12.03;;;6.93;;
6505;SDS011;3286;49.858;8.768;2023-02-21T06:09:34;10.97;;;7.33;;
6505;SDS011;3286;49.858;8.768;2023-02-21T06:12:00;13.50;;;6.53;;
6505;SDS011;3286;49.858;8.768;2023-02-21T06:14:28;13.53;;;7.03;;
6505;SDS011;3286;49.858;8.768;2023-02-21T06:16:55;18.37;;;7.67;;
6505;SDS011;3286;49.858;8.768;2023-02-21T06:19:21;17.07;;;7.47;;
6505;SDS011;3286;49.858;8.768;2023-02-21T06:21:48;12.90;;;6.73;;
6505;SDS011;3286;49.858;8.768;2023-02-21T06:24:15;12.97;;;6.90;;
6505;SDS011;3286;49.858;8.768;2023-02-21T06:26:41;12.13;;;7.03;;
6505;SDS011;3286;49.858;8.768;2023-02-21T06:29:09;11.93;;;7.70;;
6505;SDS011;3286;49.858;8.768;2023-02-21T06:31:38;14.40;;;7.77;;
6505;SDS011;3286;49.858;8.768;2023-02-21T06:34:04;13.33;;;7.80;;
6505;SDS011;3286;49.858;8.768;2023-02-21T06:36:31;15.13;;;7.70;;
6505;SDS011;3286;49.858;8.768;2023-02-21T06:38:57;11.93;;;7.77;;
6505;SDS011;3286;49.858;8.768;2023-02-21T06:41:24;15.27;;;9.07;;
6505;SDS011;3286;49.858;8.768;2023-02-21T06:43:53;40.50;;;15.00;;
6505;SDS011;3286;49.858;8.768;2023-02-21T06:46:21;15.53;;;8.97;;
6505;SDS011;3286;49.858;8.768;2023-02-21T06:48:50;15.03;;;8.10;;
6505;SDS011;3286;49.858;8.768;2023-02-21T06:51:17;13.03;;;7.43;;
6505;SDS011;3286;49.858;8.768;2023-02-21T06:53:44;16.53;;;7.70;;
6505;SDS011;3286;49.858;8.768;2023-02-21T06:56:14;14.67;;;7.47;;
6505;SDS011;3286;49.858;8.768;2023-02-21T06:58:40;18.87;;;9.23;;
6505;SDS011;3286;49.858;8.768;2023-02-21T07:01:07;19.40;;;8.80;;
6505;SDS011;3286;49.858;8.768;2023-02-21T07:03:33;17.10;;;9.03;;
6505;SDS011;3286;49.858;8.768;2023-02-21T07:06:06;13.33;;;8.97;;
6505;SDS011;3286;49.858;8.768;2023-02-21T07:08:32;11.37;;;7.13;;
6505;SDS011;3286;49.858;8.768;2023-02-21T07:10:59;13.47;;;8.20;;
6505;SDS011;3286;49.858;8.768;2023-02-21T07:13:26;13.17;;;7.23;;
6505;SDS011;3286;49.858;8.768;2023-02-21T07:15:52;12.57;;;7.30;;
6505;SDS011;3286;49.858;8.768;2023-02-21T07:18:19;12.93;;;7.73;;
6505;SDS011;3286;49.858;8.768;2023-02-21T07:20:46;16.80;;;7.90;;
6505;SDS011;3286;49.858;8.768;2023-02-21T07:23:14;15.57;;;8.00;;
6505;SDS011;3286;49.858;8.768;2023-02-21T07:25:41;12.27;;;7.83;;
6505;SDS011;3286;49.858;8.768;2023-02-21T07:28:08;12.03;;;7.50;;
6505;SDS011;3286;49.858;8.768;2023-02-21T07:30:35;13.47;;;7.03;;
6505;SDS011;3286;49.858;8.768;2023-02-21T07:33:02;18.30;;;8.40;;
6505;SDS011;3286;49.858;8.768;2023-02-21T07:35:29;12.53;;;7.50;;
6505;SDS011;3286;49.858;8.768;2023-02-21T07:37:55;12.97;;;7.07;;
6505;SDS011;3286;49.858;8.768;2023-02-21T07:40:23;15.27;;;7.47;;
6505;SDS011;3286;49.858;8.768;2023-02-21T07:42:50;14.10;;;7.47;;
6505;SDS011;3286;49.858;8.768;2023-02-21T07:45:17;11.30;;;6.80;;
6505;SDS011;3286;49.858;8.768;2023-02-21T07:47:43;13.33;;;6.67;;
6505;SDS011;3286;49.858;8.768;2023-02-21T07:50:10;14.00;;;7.00;;
6505;SDS011;3286;49.858;8.768;2023-02-21T07:52:37;12.37;;;7.23;;
6505;SDS011;3286;49.858;8.768;2023-02-21T07:55:04;11.77;;;6.90;;
6505;SDS011;3286;49.858;8.768;2023-02-21T07:57:32;10.27;;;7.10;;
6505;SDS011;3286;49.858;8.768;2023-02-21T07:59:59;11.90;;;6.57;;
6505;SDS011;3286;49.858;8.768;2023-02-21T08:02:26;12.80;;;7.47;;
6505;SDS011;3286;49.858;8.768;2023-02-21T08:04:52;14.97;;;7.77;;
6505;SDS011;3286;49.858;8.768;2023-02-21T08:07:19;13.53;;;7.70;;
6505;SDS011;3286;49.858;8.768;2023-02-21T08:09:45;17.97;;;8.10;;
6505;SDS011;3286;49.858;8.768;2023-02-21T08:12:12;13.77;;;9.20;;
6505;SDS011;3286;49.858;8.768;2023-02-21T08:14:40;14.40;;;7.40;;
6505;SDS011;3286;49.858;8.768;2023-02-21T08:17:06;16.90;;;8.87;;
6505;SDS011;3286;49.858;8.768;2023-02-21T08:19:33;13.50;;;8.00;;
6505;SDS011;3286;49.858;8.768;2023-02-21T08:22:00;15.30;;;9.20;;
6505;SDS011;3286;49.858;8.768;2023-02-21T08:24:26;16.53;;;8.53;;
6505;SDS011;3286;49.858;8.768;2023-02-21T08:26:53;15.20;;;8.57;;
6505;SDS011;3286;49.858;8.768;2023-02-21T08:29:19;15.80;;;7.40;;
6505;SDS011;3286;49.858;8.768;2023-02-21T08:31:48;10.67;;;7.07;;
6505;SDS011;3286;49.858;8.768;2023-02-21T08:34:14;12.10;;;7.10;;
6505;SDS011;3286;49.858;8.768;2023-02-21T08:36:42;11.70;;;6.50;;
6505;SDS011;3286;49.858;8.768;2023-02-21T08:39:10;9.47;;;7.10;;
6505;SDS011;3286;49.858;8.768;2023-02-21T08:41:41;14.77;;;7.77;;
6505;SDS011;3286;49.858;8.768;2023-02-21T08:44:11;12.43;;;7.50;;
6505;SDS011;3286;49.858;8.768;2023-02-21T08:46:40;11.40;;;7.40;;
6505;SDS011;3286;49.858;8.768;2023-02-21T08:49:13;13.83;;;7.33;;
6505;SDS011;3286;49.858;8.768;2023-02-21T08:51:44;14.20;;;7.23;;
6505;SDS011;3286;49.858;8.768;2023-02-21T08:54:12;8.40;;;6.73;;
6505;SDS011;3286;49.858;8.768;2023-02-21T08:56:39;10.17;;;7.20;;
6505;SDS011;3286;49.858;8.768;2023-02-21T08:59:06;14.13;;;7.47;;
6505;SDS011;3286;49.858;8.768;2023-02-21T09:01:37;11.70;;;7.17;;
6505;SDS011;3286;49.858;8.768;2023-02-21T09:04:04;15.00;;;7.37;;
6505;SDS011;3286;49.858;8.768;2023-02-21T09:06:36;11.53;;;7.00;;
6505;SDS011;3286;49.858;8.768;2023-02-21T09:09:03;12.70;;;6.80;;
6505;SDS011;3286;49.858;8.768;2023-02-21T09:11:34;11.67;;;7.17;;
6505;SDS011;3286;49.858;8.768;2023-02-21T09:14:04;14.23;;;7.07;;
6505;SDS011;3286;49.858;8.768;2023-02-21T09:16:32;14.20;;;7.73;;
6505;SDS011;3286;49.858;8.768;2023-02-21T09:18:59;12.03;;;7.00;;
6505;SDS011;3286;49.858;8.768;2023-02-21T09:21:26;12.43;;;7.27;;
6505;SDS011;3286;49.858;8.768;2023-02-21T09:23:55;10.77;;;7.17;;
6505;SDS011;3286;49.858;8.768;2023-02-21T09:26:23;9.87;;;6.33;;
6505;SDS011;3286;49.858;8.768;2023-02-21T09:28:50;13.63;;;7.07;;
6505;SDS011;3286;49.858;8.768;2023-02-21T09:31:17;12.90;;;7.03;;
6505;SDS011;3286;49.858;8.768;2023-02-21T09:33:44;9.03;;;6.60;;
6505;SDS011;3286;49.858;8.768;2023-02-21T09:36:11;12.67;;;7.53;;
6505;SDS011;3286;49.858;8.768;2023-02-21T09:38:38;14.20;;;7.10;;
6505;SDS011;3286;49.858;8.768;2023-02-21T09:41:08;12.17;;;6.83;;
6505;SDS011;3286;49.858;8.768;2023-02-21T09:43:37;11.53;;;6.80;;
6505;SDS011;3286;49.858;8.768;2023-02-21T09:46:06;10.43;;;6.77;;
6505;SDS011;3286;49.858;8.768;2023-02-21T09:48:38;13.23;;;6.70;;
6505;SDS011;3286;49.858;8.768;2023-02-21T09:51:06;13.07;;;6.77;;
6505;SDS011;3286;49.858;8.768;2023-02-21T09:53:36;9.97;;;6.07;;
6505;SDS011;3286;49.858;8.768;2023-02-21T09:56:06;9.02;;;5.78;;
6505;SDS011;3286;49.858;8.768;2023-02-21T09:58:37;12.70;;;6.50;;
6505;SDS011;3286;49.858;8.768;2023-02-21T10:01:10;10.80;;;6.43;;
6505;SDS011;3286;49.858;8.768;2023-02-21T10:03:45;12.10;;;6.57;;
6505;SDS011;3286;49.858;8.768;2023-02-21T10:06:22;9.98;;;6.72;;
6505;SDS011;3286;49.858;8.768;2023-02-21T10:08:57;14.77;;;6.97;;
6505;SDS011;3286;49.858;8.768;2023-02-21T10:11:32;9.13;;;6.15;;
6505;SDS011;3286;49.858;8.768;2023-02-21T10:14:12;8.97;;;6.30;;
6505;SDS011;3286;49.858;8.768;2023-02-21T10:16:50;9.48;;;6.57;;
6505;SDS011;3286;49.858;8.768;2023-02-21T10:19:22;10.38;;;6.00;;
6505;SDS011;3286;49.858;8.768;2023-02-21T10:21:55;10.43;;;6.10;;
6505;SDS011;3286;49.858;8.768;2023-02-21T10:24:24;8.32;;;5.90;;
6505;SDS011;3286;49.858;8.768;2023-02-21T10:26:55;9.27;;;6.28;;
6505;SDS011;3286;49.858;8.768;2023-02-21T10:29:29;10.60;;;6.20;;
6505;SDS011;3286;49.858;8.768;2023-02-21T10:32:04;12.95;;;7.00;;
6505;SDS011;3286;49.858;8.768;2023-02-21T10:34:31;11.57;;;6.53;;
6505;SDS011;3286;49.858;8.768;2023-02-21T10:37:01;11.75;;;6.75;;
6505;SDS011;3286;49.858;8.768;2023-02-21T10:39:39;9.40;;;6.28;;
6505;SDS011;3286;49.858;8.768;2023-02-21T10:42:13;10.75;;;6.55;;
6505;SDS011;3286;49.858;8.768;2023-02-21T10:44:51;10.60;;;6.35;;
6505;SDS011;3286;49.858;8.768;2023-02-21T10:47:28;9.00;;;6.13;;
6505;SDS011;3286;49.858;8.768;2023-02-21T10:50:04;11.05;;;6.15;;
6505;SDS011;3286;49.858;8.768;2023-02-21T10:52:35;9.75;;;5.88;;
6505;SDS011;3286;49.858;8.768;2023-02-21T10:55:04;10.90;;;6.28;;
6505;SDS011;3286;49.858;8.768;2023-02-21T10:57:37;9.30;;;6.18;;
6505;SDS011;3286;49.858;8.768;2023-02-21T11:00:07;10.27;;;6.50;;
6505;SDS011;3286;49.858;8.768;2023-02-21T11:02:35;9.02;;;6.22;;
6505;SDS011;3286;49.858;8.768;2023-02-21T11:05:12;19.83;;;7.57;;
6505;SDS011;3286;49.858;8.768;2023-02-21T11:07:41;11.00;;;6.75;;
6505;SDS011;3286;49.858;8.768;2023-02-21T11:10:26;9.43;;;5.88;;
6505;SDS011;3286;49.858;8.768;2023-02-21T11:13:02;10.98;;;6.50;;
6505;SDS011;3286;49.858;8.768;2023-02-21T11:15:30;8.95;;;6.07;;
6505;SDS011;3286;49.858;8.768;2023-02-21T11:20:44;9.77;;;5.93;;
6505;SDS011;3286;49.858;8.768;2023-02-21T11:23:19;12.18;;;6.40;;
6505;SDS011;3286;49.858;8.768;2023-02-21T11:25:48;10.38;;;6.88;;
6505;SDS011;3286;49.858;8.768;2023-02-21T11:28:22;11.55;;;6.05;;
6505;SDS011;3286;49.858;8.768;2023-02-21T11:31:02;12.38;;;6.38;;
6505;SDS011;3286;49.858;8.768;2023-02-21T11:33:35;9.73;;;6.15;;
6505;SDS011;3286;49.858;8.768;2023-02-21T11:36:08;8.32;;;6.13;;
6505;SDS011;3286;49.858;8.768;2023-02-21T11:38:38;11.93;;;6.30;;
6505;SDS011;3286;49.858;8.768;2023-02-21T11:41:20;9.82;;;6.43;;
6505;SDS011;3286;49.858;8.768;2023-02-21T11:43:56;8.98;;;6.38;;
6505;SDS011;3286;49.858;8.768;2023-02-21T11:46:29;9.00;;;6.13;;
6505;SDS011;3286;49.858;8.768;2023-02-21T11:49:02;9.70;;;5.95;;
6505;SDS011;3286;49.858;8.768;2023-02-21T11:51:40;10.40;;;6.22;;
6505;SDS011;3286;49.858;8.768;2023-02-21T11:54:11;11.02;;;5.82;;
6505;SDS011;3286;49.858;8.768;2023-02-21T11:59:31;8.75;;;5.20;;
6505;SDS011;3286;49.858;8.768;2023-02-21T12:02:22;8.57;;;5.82;;
6505;SDS011;3286;49.858;8.768;2023-02-21T12:05:05;6.30;;;4.82;;
6505;SDS011;3286;49.858;8.768;2023-02-21T12:07:44;8.93;;;5.80;;
6505;SDS011;3286;49.858;8.768;2023-02-21T12:10:27;11.73;;;5.55;;
6505;SDS011;3286;49.858;8.768;2023-02-21T12:13:06;10.90;;;5.60;;
6505;SDS011;3286;49.858;8.768;2023-02-21T12:15:50;7.70;;;5.07;;
6505;SDS011;3286;49.858;8.768;2023-02-21T12:18:31;8.95;;;5.35;;
6505;SDS011;3286;49.858;8.768;2023-02-21T12:21:16;8.82;;;4.93;;
6505;SDS011;3286;49.858;8.768;2023-02-21T12:23:57;10.32;;;5.35;;
6505;SDS011;3286;49.858;8.768;2023-02-21T12:26:41;9.50;;;5.05;;
6505;SDS011;3286;49.858;8.768;2023-02-21T12:29:17;8.25;;;4.82;;
6505;SDS011;3286;49.858;8.768;2023-02-21T12:31:59;10.88;;;5.05;;
6505;SDS011;3286;49.858;8.768;2023-02-21T12:34:42;11.77;;;5.53;;
6505;SDS011;3286;49.858;8.768;2023-02-21T12:37:24;13.43;;;5.38;;
6505;SDS011;3286;49.858;8.768;2023-02-21T12:40:11;6.57;;;4.63;;
6505;SDS011;3286;49.858;8.768;2023-02-21T12:42:51;17.75;;;5.75;;
6505;SDS011;3286;49.858;8.768;2023-02-21T12:48:20;7.90;;;4.32;;
6505;SDS011;3286;49.858;8.768;2023-02-21T12:50:54;9.27;;;5.28;;
6505;SDS011;3286;49.858;8.768;2023-02-21T12:53:25;8.35;;;5.72;;
6505;SDS011;3286;49.858;8.768;2023-02-21T12:56:01;7.43;;;5.28;;
6505;SDS011;3286;49.858;8.768;2023-02-21T12:58:32;7.50;;;5.72;;
6505;SDS011;3286;49.858;8.768;2023-02-21T13:01:03;8.80;;;5.78;;
6505;SDS011;3286;49.858;8.768;2023-02-21T13:03:41;7.63;;;5.15;;
6505;SDS011;3286;49.858;8.768;2023-02-21T13:06:17;7.35;;;4.80;;
6505;SDS011;3286;49.858;8.768;2023-02-21T13:08:52;7.82;;;4.95;;
6505;SDS011;3286;49.858;8.768;2023-02-21T13:11:28;8.63;;;5.30;;
6505;SDS011;3286;49.858;8.768;2023-02-21T13:14:00;8.10;;;5.13;;
6505;SDS011;3286;49.858;8.768;2023-02-21T13:16:28;5.30;;;4.20;;
6505;SDS011;3286;49.858;8.768;2023-02-21T13:19:00;5.95;;;4.03;;
6505;SDS011;3286;49.858;8.768;2023-02-21T13:21:36;7.38;;;4.43;;
6505;SDS011;3286;49.858;8.768;2023-02-21T13:24:20;7.53;;;3.80;;
6505;SDS011;3286;49.858;8.768;2023-02-21T13:27:03;9.27;;;3.78;;
6505;SDS011;3286;49.858;8.768;2023-02-21T13:29:58;5.22;;;3.45;;
6505;SDS011;3286;49.858;8.768;2023-02-21T13:32:35;8.82;;;3.85;;
6505;SDS011;3286;49.858;8.768;2023-02-21T13:35:06;11.52;;;3.92;;
6505;SDS011;3286;49.858;8.768;2023-02-21T13:37:35;6.10;;;3.78;;
6505;SDS011;3286;49.858;8.768;2023-02-21T13:40:15;6.25;;;4.00;;
6505;SDS011;3286;49.858;8.768;2023-02-21T13:42:47;7.32;;;4.43;;
6505;SDS011;3286;49.858;8.768;2023-02-21T13:45:15;7.03;;;4.18;;
6505;SDS011;3286;49.858;8.768;2023-02-21T13:50:51;4.60;;;3.88;;
6505;SDS011;3286;49.858;8.768;2023-02-21T13:53:19;5.40;;;3.88;;
6505;SDS011;3286;49.858;8.768;2023-02-21T13:58:50;7.03;;;3.80;;
6505;SDS011;3286;49.858;8.768;2023-02-21T14:10:18;5.28;;;3.10;;
6505;SDS011;3286;49.858;8.768;2023-02-21T14:12:51;7.63;;;3.05;;
6505;SDS011;3286;49.858;8.768;2023-02-21T14:15:20;10.90;;;3.40;;
6505;SDS011;3286;49.858;8.768;2023-02-21T14:17:47;7.50;;;3.35;;
6505;SDS011;3286;49.858;8.768;2023-02-21T14:20:18;4.45;;;3.33;;
6505;SDS011;3286;49.858;8.768;2023-02-21T14:22:48;4.40;;;3.53;;
6505;SDS011;3286;49.858;8.768;2023-02-21T14:25:20;4.65;;;3.40;;
6505;SDS011;3286;49.858;8.768;2023-02-21T14:27:49;5.25;;;3.38;;
6505;SDS011;3286;49.858;8.768;2023-02-21T14:30:27;4.80;;;3.42;;
6505;SDS011;3286;49.858;8.768;2023-02-21T14:33:01;5.95;;;3.80;;
6505;SDS011;3286;49.858;8.768;2023-02-21T14:35:55;5.07;;;2.90;;
6505;SDS011;3286;49.858;8.768;2023-02-21T14:38:26;6.68;;;3.50;;
6505;SDS011;3286;49.858;8.768;2023-02-21T14:41:00;11.95;;;3.60;;
6505;SDS011;3286;49.858;8.768;2023-02-21T14:43:38;6.53;;;3.42;;
6505;SDS011;3286;49.858;8.768;2023-02-21T14:49:17;5.95;;;4.15;;
6505;SDS011;3286;49.858;8.768;2023-02-21T14:52:07;5.68;;;3.95;;
6505;SDS011;3286;49.858;8.768;2023-02-21T14:55:01;5.75;;;3.78;;
6505;SDS011;3286;49.858;8.768;2023-02-21T14:57:53;5.22;;;3.20;;
6505;SDS011;3286;49.858;8.768;2023-02-21T15:00:34;5.07;;;3.55;;
6505;SDS011;3286;49.858;8.768;2023-02-21T15:03:09;4.90;;;3.72;;
6505;SDS011;3286;49.858;8.768;2023-02-21T15:05:44;9.88;;;4.35;;
6505;SDS011;3286;49.858;8.768;2023-02-21T15:08:24;5.55;;;3.85;;
6505;SDS011;3286;49.858;8.768;2023-02-21T15:10:53;6.07;;;3.60;;
6505;SDS011;3286;49.858;8.768;2023-02-21T15:13:26;8.07;;;4.20;;
6505;SDS011;3286;49.858;8.768;2023-02-21T15:15:55;5.93;;;4.18;;
6505;SDS011;3286;49.858;8.768;2023-02-21T15:18:25;8.10;;;4.03;;
6505;SDS011;3286;49.858;8.768;2023-02-21T15:21:03;7.53;;;4.43;;
6505;SDS011;3286;49.858;8.768;2023-02-21T15:23:32;6.38;;;4.35;;
6505;SDS011;3286;49.858;8.768;2023-02-21T15:25:59;7.53;;;3.85;;
6505;SDS011;3286;49.858;8.768;2023-02-21T15:28:37;4.95;;;3.92;;
6505;SDS011;3286;49.858;8.768;2023-02-21T15:31:04;6.13;;;4.05;;
6505;SDS011;3286;49.858;8.768;2023-02-21T15:33:33;6.93;;;3.65;;
6505;SDS011;3286;49.858;8.768;2023-02-21T15:36:02;5.82;;;3.78;;
6505;SDS011;3286;49.858;8.768;2023-02-21T15:38:33;7.57;;;4.30;;
6505;SDS011;3286;49.858;8.768;2023-02-21T15:41:06;9.63;;;4.20;;
6505;SDS011;3286;49.858;8.768;2023-02-21T15:43:41;7.25;;;3.75;;
6505;SDS011;3286;49.858;8.768;2023-02-21T15:46:14;7.03;;;4.05;;
6505;SDS011;3286;49.858;8.768;2023-02-21T15:48:44;5.40;;;3.78;;
6505;SDS011;3286;49.858;8.768;2023-02-21T15:51:12;8.73;;;5.18;;
6505;SDS011;3286;49.858;8.768;2023-02-21T15:53:41;7.70;;;3.78;;
6505;SDS011;3286;49.858;8.768;2023-02-21T15:56:14;5.05;;;3.50;;
6505;SDS011;3286;49.858;8.768;2023-02-21T15:59:03;10.43;;;3.50;;
6505;SDS011;3286;49.858;8.768;2023-02-21T16:01:34;7.85;;;4.03;;
6505;SDS011;3286;49.858;8.768;2023-02-21T16:04:14;5.25;;;3.70;;
6505;SDS011;3286;49.858;8.768;2023-02-21T16:06:47;6.13;;;4.63;;
6505;SDS011;3286;49.858;8.768;2023-02-21T16:09:20;8.60;;;4.70;;
6505;SDS011;3286;49.858;8.768;2023-02-21T16:11:51;5.57;;;3.63;;
6505;SDS011;3286;49.858;8.768;2023-02-21T16:14:24;6.88;;;4.07;;
6505;SDS011;3286;49.858;8.768;2023-02-21T16:17:05;7.65;;;4.28;;
6505;SDS011;3286;49.858;8.768;2023-02-21T16:19:34;9.40;;;4.95;;
6505;SDS011;3286;49.858;8.768;2023-02-21T16:22:11;9.55;;;4.47;;